Time;durP1;ratioP1;P1;durP2;ratioP2;P2;SDS_P1;SDS_P2;PMS_P1;PMS_P2;Temp;Humidity;BMP_temperature;BMP_pressure;BME280_temperature;BME280_humidity;BME280_pressure;Samples;Min_cycle;Max_cycle;Signal;HPM_P1;HPM_P2
2023/12/27 00:00:06;;;;;;;15.57;4.30;;;;;;;;;;5261771;28;20028;-83
2023/12/27 00:02:37;;;;;;;8.15;3.92;;;;;;;;;;5261147;28;20013;-83
2023/12/27 00:05:08;;;;;;;11.77;3.75;;;;;;;;;;5261685;28;20059;-83
2023/12/27 00:07:40;;;;;;;10.68;3.65;;;;;;;;;;5261529;28;20036;-83
2023/12/27 00:10:11;;;;;;;11.70;3.78;;;;;;;;;;5260101;28;20043;-83
2023/12/27 00:12:42;;;;;;;12.25;4.75;;;;;;;;;;5261327;28;20108;-82
2023/12/27 00:15:13;;;;;;;11.25;4.32;;;;;;;;;;5261231;28;20468;-83
2023/12/27 00:17:45;;;;;;;10.43;4.10;;;;;;;;;;5261257;28;20422;-83
2023/12/27 00:20:16;;;;;;;15.18;4.38;;;;;;;;;;5261620;28;20485;-83
2023/12/27 00:22:47;;;;;;;13.85;4.13;;;;;;;;;;5260624;28;20017;-83
2023/12/27 00:25:18;;;;;;;13.73;4.13;;;;;;;;;;5261283;28;20119;-83
2023/12/27 00:27:49;;;;;;;8.82;3.62;;;;;;;;;;5261411;28;20102;-82
2023/12/27 00:30:20;;;;;;;13.10;3.60;;;;;;;;;;5260309;28;20021;-82
2023/12/27 00:32:52;;;;;;;10.02;4.10;;;;;;;;;;5261412;28;20460;-82
2023/12/27 00:35:23;;;;;;;8.93;3.45;;;;;;;;;;5260800;28;20456;-82
2023/12/27 00:37:54;;;;;;;12.93;4.55;;;;;;;;;;5261064;28;20052;-83
2023/12/27 00:40:25;;;;;;;10.85;3.30;;;;;;;;;;5261075;28;20021;-82
2023/12/27 00:42:56;;;;;;;9.68;3.63;;;;;;;;;;5261339;28;20020;-83
2023/12/27 00:45:28;;;;;;;13.05;3.38;;;;;;;;;;5260464;28;20041;-82
2023/12/27 00:47:59;;;;;;;8.80;3.80;;;;;;;;;;5260766;28;20029;-82
2023/12/27 00:50:30;;;;;;;11.95;4.30;;;;;;;;;;5260180;28;20027;-82
2023/12/27 00:53:01;;;;;;;15.15;4.50;;;;;;;;;;5260958;28;20103;-82
2023/12/27 00:55:32;;;;;;;14.20;4.18;;;;;;;;;;5260595;28;20021;-82
2023/12/27 00:58:04;;;;;;;14.93;4.22;;;;;;;;;;5260141;28;20468;-83
2023/12/27 01:00:35;;;;;;;16.48;4.55;;;;;;;;;;5260741;28;20060;-83
2023/12/27 01:03:06;;;;;;;9.10;3.60;;;;;;;;;;5260632;28;20036;-83
2023/12/27 01:05:37;;;;;;;10.20;3.72;;;;;;;;;;5260231;28;20367;-83
2023/12/27 01:08:09;;;;;;;8.98;4.15;;;;;;;;;;5261122;28;20025;-83
2023/12/27 01:10:40;;;;;;;11.90;3.88;;;;;;;;;;5261393;28;20067;-84
2023/12/27 01:13:11;;;;;;;9.50;3.55;;;;;;;;;;5259615;28;20049;-84
2023/12/27 01:15:42;;;;;;;11.13;3.72;;;;;;;;;;5260758;28;20464;-84
2023/12/27 01:18:13;;;;;;;12.48;4.35;;;;;;;;;;5260804;28;20025;-84
2023/12/27 01:20:44;;;;;;;9.55;3.55;;;;;;;;;;5261427;28;20104;-84
2023/12/27 01:23:16;;;;;;;10.48;3.45;;;;;;;;;;5264956;28;20083;-84
2023/12/27 01:25:47;;;;;;;8.00;3.42;;;;;;;;;;5264116;28;20025;-84
2023/12/27 01:28:18;;;;;;;10.05;2.83;;;;;;;;;;5264697;28;20140;-84
2023/12/27 01:30:50;;;;;;;8.80;3.83;;;;;;;;;;5264951;28;20033;-84
2023/12/27 01:33:21;;;;;;;11.27;3.85;;;;;;;;;;5263786;28;20055;-84
2023/12/27 01:35:53;;;;;;;12.55;2.97;;;;;;;;;;5264819;28;20124;-83
2023/12/27 01:38:24;;;;;;;9.27;3.33;;;;;;;;;;5264412;28;20088;-84
2023/12/27 01:40:55;;;;;;;10.80;2.83;;;;;;;;;;5264500;28;20048;-84
2023/12/27 01:43:27;;;;;;;9.02;3.08;;;;;;;;;;5264073;28;20024;-83
2023/12/27 01:45:58;;;;;;;9.02;3.45;;;;;;;;;;5264335;28;20116;-83
2023/12/27 01:48:29;;;;;;;10.52;2.70;;;;;;;;;;5263683;28;20028;-84
2023/12/27 01:51:01;;;;;;;6.68;2.47;;;;;;;;;;5264424;28;20426;-83
2023/12/27 01:53:32;;;;;;;10.05;3.25;;;;;;;;;;5264238;28;20009;-84
2023/12/27 01:56:03;;;;;;;8.85;2.97;;;;;;;;;;5263493;28;20071;-84
2023/12/27 01:58:35;;;;;;;12.80;3.58;;;;;;;;;;5263892;28;20013;-83
2023/12/27 02:01:06;;;;;;;10.30;3.58;;;;;;;;;;5263279;28;20060;-83
2023/12/27 02:03:37;;;;;;;12.90;3.28;;;;;;;;;;5264165;28;20067;-83
2023/12/27 02:06:09;;;;;;;9.88;2.47;;;;;;;;;;5264169;28;20035;-84
2023/12/27 02:08:40;;;;;;;15.70;3.78;;;;;;;;;;5263353;28;20021;-83
2023/12/27 02:11:11;;;;;;;9.35;3.08;;;;;;;;;;5263592;28;20032;-83
2023/12/27 02:13:43;;;;;;;12.73;3.22;;;;;;;;;;5264058;28;20028;-84
2023/12/27 02:16:14;;;;;;;13.50;3.38;;;;;;;;;;5263540;28;20029;-83
2023/12/27 02:18:45;;;;;;;11.23;3.35;;;;;;;;;;5264301;28;20096;-83
2023/12/27 02:21:17;;;;;;;7.80;3.40;;;;;;;;;;5263748;28;20071;-83
2023/12/27 02:23:50;;;;;;;9.30;2.70;;;;;;;;;;5262964;28;20020;-84
2023/12/27 02:26:21;;;;;;;11.10;2.85;;;;;;;;;;5263349;28;20464;-82
2023/12/27 02:28:52;;;;;;;13.05;2.92;;;;;;;;;;5263366;28;20112;-84
2023/12/27 02:31:23;;;;;;;12.80;3.30;;;;;;;;;;5263116;28;20025;-78
2023/12/27 02:33:54;;;;;;;14.20;2.92;;;;;;;;;;5262550;28;20016;-82
2023/12/27 02:36:26;;;;;;;10.95;2.63;;;;;;;;;;5262197;28;20059;-81
2023/12/27 02:38:57;;;;;;;8.15;2.47;;;;;;;;;;5263303;28;20036;-81
2023/12/27 02:41:28;;;;;;;8.85;2.45;;;;;;;;;;5263417;28;20507;-82
2023/12/27 02:43:59;;;;;;;7.82;2.88;;;;;;;;;;5262963;28;20017;-81
2023/12/27 02:46:31;;;;;;;10.95;2.60;;;;;;;;;;5263560;28;20078;-82
2023/12/27 02:49:02;;;;;;;15.27;2.90;;;;;;;;;;5263282;28;20013;-81
2023/12/27 02:51:33;;;;;;;10.38;2.88;;;;;;;;;;5262221;28;20025;-82
2023/12/27 02:54:05;;;;;;;12.82;2.92;;;;;;;;;;5263306;28;20017;-82
2023/12/27 02:56:36;;;;;;;12.20;3.08;;;;;;;;;;5263269;28;20157;-82
2023/12/27 02:59:09;;;;;;;10.90;2.35;;;;;;;;;;5261778;28;20017;-77
2023/12/27 03:01:40;;;;;;;12.00;3.00;;;;;;;;;;5263427;28;20354;-82
2023/12/27 03:04:11;;;;;;;5.88;2.50;;;;;;;;;;5262375;28;20028;-83
2023/12/27 03:06:42;;;;;;;9.77;3.10;;;;;;;;;;5262954;28;20037;-82
2023/12/27 03:09:13;;;;;;;11.43;2.65;;;;;;;;;;5263019;28;20083;-81
2023/12/27 03:11:44;;;;;;;9.82;2.78;;;;;;;;;;5261863;28;20085;-82
2023/12/27 03:14:16;;;;;;;10.42;2.82;;;;;;;;;;5263030;28;20025;-82
2023/12/27 03:16:47;;;;;;;10.50;2.83;;;;;;;;;;5262761;28;20013;-82
2023/12/27 03:19:18;;;;;;;9.70;2.45;;;;;;;;;;5262135;28;20218;-82
2023/12/27 03:21:49;;;;;;;9.48;2.30;;;;;;;;;;5262777;28;20025;-82
2023/12/27 03:24:20;;;;;;;9.98;2.70;;;;;;;;;;5262484;28;20108;-82
2023/12/27 03:26:52;;;;;;;10.38;2.65;;;;;;;;;;5262043;28;20040;-82
2023/12/27 03:29:23;;;;;;;9.30;2.38;;;;;;;;;;5262293;28;20069;-82
2023/12/27 03:31:54;;;;;;;5.80;2.00;;;;;;;;;;5263068;28;20468;-83
2023/12/27 03:34:25;;;;;;;9.40;3.55;;;;;;;;;;5261252;28;20040;-82
2023/12/27 03:36:56;;;;;;;7.50;2.40;;;;;;;;;;5262124;28;20492;-82
2023/12/27 03:39:27;;;;;;;11.26;2.94;;;;;;;;;;5261095;28;20032;-82
2023/12/27 03:41:59;;;;;;;10.27;2.90;;;;;;;;;;5262163;28;20081;-83
2023/12/27 03:44:30;;;;;;;8.35;2.35;;;;;;;;;;5261061;28;20021;-82
2023/12/27 03:47:01;;;;;;;9.52;2.53;;;;;;;;;;5260994;28;20032;-82
2023/12/27 03:49:32;;;;;;;7.57;2.38;;;;;;;;;;5261834;28;20024;-82
2023/12/27 03:52:04;;;;;;;10.25;2.45;;;;;;;;;;5262036;28;20029;-82
2023/12/27 03:54:35;;;;;;;7.68;2.17;;;;;;;;;;5261046;28;20017;-82
2023/12/27 03:57:06;;;;;;;9.25;2.70;;;;;;;;;;5261622;28;20017;-83
2023/12/27 03:59:41;;;;;;;9.63;2.40;;;;;;;;;;5261789;28;20021;-82
2023/12/27 04:02:13;;;;;;;7.80;3.03;;;;;;;;;;5261276;28;20043;-82
2023/12/27 04:04:46;;;;;;;8.88;2.63;;;;;;;;;;5261313;28;20056;-82
2023/12/27 04:07:17;;;;;;;10.30;2.30;;;;;;;;;;5261900;28;20029;-82
2023/12/27 04:09:49;;;;;;;7.78;2.50;;;;;;;;;;5261092;28;20031;-82
2023/12/27 04:12:20;;;;;;;10.38;3.13;;;;;;;;;;5261679;28;20021;-81
2023/12/27 04:14:51;;;;;;;9.00;2.90;;;;;;;;;;5261089;28;20024;-82
2023/12/27 04:17:22;;;;;;;8.88;2.83;;;;;;;;;;5261249;28;20408;-81
2023/12/27 04:19:54;;;;;;;11.02;3.35;;;;;;;;;;5262064;28;20387;-81
2023/12/27 04:22:25;;;;;;;7.70;2.95;;;;;;;;;;5260515;28;20017;-81
2023/12/27 04:24:56;;;;;;;9.57;3.00;;;;;;;;;;5261456;28;20013;-81
2023/12/27 04:27:27;;;;;;;13.38;2.80;;;;;;;;;;5261069;28;20071;-82
2023/12/27 04:29:58;;;;;;;12.92;2.56;;;;;;;;;;5260720;28;20016;-82
2023/12/27 04:32:31;;;;;;;11.07;3.55;;;;;;;;;;5261162;28;20025;-81
2023/12/27 04:35:02;;;;;;;9.90;3.00;;;;;;;;;;5261104;28;20092;-82
2023/12/27 04:37:33;;;;;;;10.23;2.95;;;;;;;;;;5260528;28;20020;-82
2023/12/27 04:40:05;;;;;;;12.63;3.42;;;;;;;;;;5260980;28;20067;-81
2023/12/27 04:42:36;;;;;;;8.65;2.60;;;;;;;;;;5260700;28;20116;-82
2023/12/27 04:45:07;;;;;;;8.98;3.67;;;;;;;;;;5261146;28;20033;-82
2023/12/27 04:47:39;;;;;;;9.02;2.75;;;;;;;;;;5261309;28;20032;-82
2023/12/27 04:50:10;;;;;;;6.25;2.35;;;;;;;;;;5260762;28;20063;-82
2023/12/27 04:52:41;;;;;;;9.88;2.50;;;;;;;;;;5261492;28;20021;-81
2023/12/27 04:55:13;;;;;;;9.32;2.65;;;;;;;;;;5260975;28;20044;-81
2023/12/27 04:57:44;;;;;;;10.50;2.97;;;;;;;;;;5260324;28;20028;-82
2023/12/27 05:00:15;;;;;;;12.57;2.50;;;;;;;;;;5261159;28;20562;-81
2023/12/27 05:02:46;;;;;;;10.88;2.65;;;;;;;;;;5261461;28;20107;-81
2023/12/27 05:05:17;;;;;;;11.25;2.80;;;;;;;;;;5260474;28;20032;-81
2023/12/27 05:07:49;;;;;;;12.93;2.72;;;;;;;;;;5261101;28;20107;-81
2023/12/27 05:10:20;;;;;;;8.45;2.50;;;;;;;;;;5260730;28;20033;-82
2023/12/27 05:12:53;;;;;;;11.07;2.47;;;;;;;;;;5260238;28;20507;-82
2023/12/27 05:15:25;;;;;;;9.05;2.55;;;;;;;;;;5261099;28;20013;-81
2023/12/27 05:17:57;;;;;;;9.48;2.88;;;;;;;;;;5260598;28;20056;-82
2023/12/27 05:20:28;;;;;;;9.13;2.65;;;;;;;;;;5261131;28;20037;-82
2023/12/27 05:22:59;;;;;;;8.63;2.67;;;;;;;;;;5260676;28;20099;-82
2023/12/27 05:25:30;;;;;;;7.65;2.83;;;;;;;;;;5258314;28;20025;-82
2023/12/27 05:28:01;;;;;;;7.95;1.95;;;;;;;;;;5260341;28;20411;-81
2023/12/27 05:30:33;;;;;;;7.72;2.92;;;;;;;;;;5260534;28;20020;-81
2023/12/27 05:33:04;;;;;;;8.35;2.45;;;;;;;;;;5259874;28;20110;-80
2023/12/27 05:35:35;;;;;;;11.63;3.00;;;;;;;;;;5260479;28;20013;-80
2023/12/27 05:38:06;;;;;;;11.13;2.60;;;;;;;;;;5260517;28;20025;-80
2023/12/27 05:40:37;;;;;;;7.80;2.63;;;;;;;;;;5259735;28;20476;-81
2023/12/27 05:43:09;;;;;;;7.55;2.30;;;;;;;;;;5260187;28;20115;-81
2023/12/27 05:45:40;;;;;;;9.95;2.80;;;;;;;;;;5260527;28;20657;-81
2023/12/27 05:48:12;;;;;;;9.27;3.20;;;;;;;;;;5260088;28;20039;-82
2023/12/27 05:50:43;;;;;;;10.90;2.75;;;;;;;;;;5260659;28;20017;-81
2023/12/27 05:53:14;;;;;;;11.70;3.00;;;;;;;;;;5259433;28;20021;-81
2023/12/27 05:55:46;;;;;;;11.98;2.75;;;;;;;;;;5260189;28;20043;-81
2023/12/27 05:58:17;;;;;;;13.88;4.38;;;;;;;;;;5260414;28;20490;-81
2023/12/27 06:00:48;;;;;;;6.72;2.45;;;;;;;;;;5260039;28;20032;-80
2023/12/27 06:03:19;;;;;;;11.90;3.42;;;;;;;;;;5260469;28;20159;-80
2023/12/27 06:05:50;;;;;;;9.25;3.25;;;;;;;;;;5260631;28;20032;-80
2023/12/27 06:08:21;;;;;;;8.94;3.42;;;;;;;;;;5261691;28;20100;-81
2023/12/27 06:10:53;;;;;;;7.88;2.97;;;;;;;;;;5264629;28;20036;-81
2023/12/27 06:13:24;;;;;;;10.38;3.13;;;;;;;;;;5264136;28;20100;-79
2023/12/27 06:15:55;;;;;;;10.50;3.33;;;;;;;;;;5263833;28;20457;-80
2023/12/27 06:18:26;;;;;;;9.25;3.17;;;;;;;;;;5263932;28;20021;-80
2023/12/27 06:20:57;;;;;;;9.30;2.83;;;;;;;;;;5263903;28;20025;-81
2023/12/27 06:23:29;;;;;;;11.77;3.92;;;;;;;;;;5263633;28;20024;-80
2023/12/27 06:26:00;;;;;;;5.97;3.03;;;;;;;;;;5264192;28;20029;-83
2023/12/27 06:28:32;;;;;;;9.23;3.10;;;;;;;;;;5262995;28;20068;-83
2023/12/27 06:31:03;;;;;;;8.15;3.33;;;;;;;;;;5264227;28;20048;-81
2023/12/27 06:33:35;;;;;;;8.90;4.03;;;;;;;;;;5263951;28;20048;-81
2023/12/27 06:36:06;;;;;;;8.18;3.67;;;;;;;;;;5262448;28;20025;-78
2023/12/27 06:38:39;;;;;;;5.90;3.55;;;;;;;;;;5263239;28;20066;-78
2023/12/27 06:41:11;;;;;;;7.75;3.13;;;;;;;;;;5263180;28;20028;-77
2023/12/27 06:43:43;;;;;;;6.25;3.22;;;;;;;;;;5262242;28;20104;-78
2023/12/27 06:46:14;;;;;;;6.68;2.95;;;;;;;;;;5263118;28;20036;-77
2023/12/27 06:48:45;;;;;;;7.82;3.95;;;;;;;;;;5263458;28;20017;-78
2023/12/27 06:51:16;;;;;;;7.58;2.92;;;;;;;;;;5262417;28;20025;-77
2023/12/27 06:53:48;;;;;;;5.45;3.50;;;;;;;;;;5262824;28;20105;-78
2023/12/27 06:56:19;;;;;;;7.13;2.92;;;;;;;;;;5262173;28;20499;-77
2023/12/27 06:58:50;;;;;;;4.82;2.95;;;;;;;;;;5262799;28;20466;-77
2023/12/27 07:01:22;;;;;;;5.03;2.88;;;;;;;;;;5262855;28;20060;-79
2023/12/27 07:03:53;;;;;;;6.15;2.65;;;;;;;;;;5262133;28;20024;-77
2023/12/27 07:06:24;;;;;;;7.43;3.20;;;;;;;;;;5262467;28;20025;-75
2023/12/27 07:08:55;;;;;;;4.80;2.85;;;;;;;;;;5263118;28;20469;-74
2023/12/27 07:11:26;;;;;;;5.95;3.00;;;;;;;;;;5261274;28;20021;-79
2023/12/27 07:13:57;;;;;;;4.38;2.83;;;;;;;;;;5262641;28;20017;-79
2023/12/27 07:16:29;;;;;;;5.45;2.88;;;;;;;;;;5262788;28;20107;-79
2023/12/27 07:19:00;;;;;;;4.70;2.75;;;;;;;;;;5261700;28;20020;-76
2023/12/27 07:21:31;;;;;;;7.88;2.90;;;;;;;;;;5262510;28;20083;-80
2023/12/27 07:24:02;;;;;;;3.92;2.72;;;;;;;;;;5262524;28;20380;-79
2023/12/27 07:26:34;;;;;;;4.75;2.75;;;;;;;;;;5261605;28;20087;-79
2023/12/27 07:29:05;;;;;;;3.72;2.90;;;;;;;;;;5262257;28;20041;-78
2023/12/27 07:31:36;;;;;;;4.22;2.92;;;;;;;;;;5261462;28;20025;-80
2023/12/27 07:34:07;;;;;;;4.43;3.28;;;;;;;;;;5262276;28;20021;-80
2023/12/27 07:36:38;;;;;;;5.55;3.33;;;;;;;;;;5262466;28;20189;-80
2023/12/27 07:39:09;;;;;;;6.50;3.63;;;;;;;;;;5261518;28;20060;-81
2023/12/27 07:41:42;;;;;;;6.43;3.63;;;;;;;;;;5262175;28;20476;-81
2023/12/27 07:44:15;;;;;;;4.97;3.92;;;;;;;;;;5262175;28;20078;-79
2023/12/27 07:46:46;;;;;;;4.03;3.50;;;;;;;;;;5261102;28;20388;-79
2023/12/27 07:49:18;;;;;;;6.03;3.88;;;;;;;;;;5262235;28;20027;-79
2023/12/27 07:51:49;;;;;;;4.07;3.60;;;;;;;;;;5262045;28;20180;-79
2023/12/27 07:54:21;;;;;;;5.93;3.75;;;;;;;;;;5261028;28;20017;-80
2023/12/27 07:56:52;;;;;;;4.05;3.42;;;;;;;;;;5262169;28;20029;-79
2023/12/27 07:59:24;;;;;;;5.40;3.90;;;;;;;;;;5261364;28;20082;-80
2023/12/27 08:01:55;;;;;;;6.32;3.95;;;;;;;;;;5261668;28;20017;-79
2023/12/27 08:04:26;;;;;;;4.82;4.07;;;;;;;;;;5260710;28;20029;-78
2023/12/27 08:06:58;;;;;;;5.05;3.55;;;;;;;;;;5260763;28;20434;-79
2023/12/27 08:09:31;;;;;;;4.65;3.67;;;;;;;;;;5261528;28;20131;-79
2023/12/27 08:12:02;;;;;;;3.90;3.47;;;;;;;;;;5261570;28;20450;-78
2023/12/27 08:14:33;;;;;;;5.32;4.13;;;;;;;;;;5261030;28;20025;-79
2023/12/27 08:17:05;;;;;;;6.57;4.28;;;;;;;;;;5261407;28;20021;-78
2023/12/27 08:19:36;;;;;;;4.75;3.58;;;;;;;;;;5261287;28;20013;-79
2023/12/27 08:22:07;;;;;;;4.50;3.65;;;;;;;;;;5259803;28;20013;-78
2023/12/27 08:24:38;;;;;;;5.72;4.20;;;;;;;;;;5261285;28;20021;-77
2023/12/27 08:27:10;;;;;;;5.05;4.20;;;;;;;;;;5260727;28;20132;-79
2023/12/27 08:29:41;;;;;;;6.43;4.22;;;;;;;;;;5260263;28;20032;-78
2023/12/27 08:32:12;;;;;;;4.93;3.40;;;;;;;;;;5260496;28;20078;-78
2023/12/27 08:34:43;;;;;;;4.82;3.50;;;;;;;;;;5260328;28;20387;-79
2023/12/27 08:37:15;;;;;;;6.22;3.78;;;;;;;;;;5260766;28;20017;-78
2023/12/27 08:39:46;;;;;;;6.15;3.55;;;;;;;;;;5260744;28;20017;-77
2023/12/27 08:42:17;;;;;;;5.50;3.70;;;;;;;;;;5260445;28;20024;-77
2023/12/27 08:44:49;;;;;;;5.95;3.38;;;;;;;;;;5261003;28;20025;-77
2023/12/27 08:47:20;;;;;;;5.30;3.75;;;;;;;;;;5260637;28;20035;-77
2023/12/27 08:49:52;;;;;;;4.25;3.17;;;;;;;;;;5260317;28;20009;-78
2023/12/27 08:52:24;;;;;;;3.72;3.00;;;;;;;;;;5260267;28;20048;-77
2023/12/27 08:54:55;;;;;;;5.13;3.20;;;;;;;;;;5259840;28;20061;-76
2023/12/27 08:57:27;;;;;;;4.47;2.80;;;;;;;;;;5259162;28;20464;-78
2023/12/27 08:59:58;;;;;;;5.85;3.00;;;;;;;;;;5260394;28;20009;-78
2023/12/27 09:02:29;;;;;;;4.43;2.47;;;;;;;;;;5253430;28;20114;-78
2023/12/27 09:05:01;;;;;;;3.15;2.63;;;;;;;;;;5258288;28;20024;-78
2023/12/27 09:07:32;;;;;;;3.95;2.58;;;;;;;;;;5258569;28;20021;-74
2023/12/27 09:10:04;;;;;;;3.78;1.85;;;;;;;;;;5257790;28;20048;-73
2023/12/27 09:12:38;;;;;;;2.53;2.10;;;;;;;;;;5260801;28;20024;-76
2023/12/27 09:15:09;;;;;;;3.60;2.25;;;;;;;;;;5259642;28;20104;-80
2023/12/27 09:17:41;;;;;;;2.50;2.28;;;;;;;;;;5259963;28;20147;-79
2023/12/27 09:20:12;;;;;;;3.95;2.42;;;;;;;;;;5260574;28;20460;-80
2023/12/27 09:22:43;;;;;;;3.13;2.13;;;;;;;;;;5260629;28;20025;-80
2023/12/27 09:25:14;;;;;;;3.13;2.10;;;;;;;;;;5259028;28;20021;-80
2023/12/27 09:27:46;;;;;;;5.25;2.33;;;;;;;;;;5260474;28;20048;-80
2023/12/27 09:30:17;;;;;;;3.13;1.65;;;;;;;;;;5260683;28;20017;-80
2023/12/27 09:32:49;;;;;;;4.07;1.80;;;;;;;;;;5259840;28;20100;-80
2023/12/27 09:35:20;;;;;;;3.75;1.92;;;;;;;;;;5260547;28;20029;-80
2023/12/27 09:37:51;;;;;;;3.03;1.60;;;;;;;;;;5260946;28;20027;-79
2023/12/27 09:40:22;;;;;;;3.10;1.38;;;;;;;;;;5259307;28;20021;-79
2023/12/27 09:42:54;;;;;;;3.75;1.60;;;;;;;;;;5263696;28;20469;-78
2023/12/27 09:45:27;;;;;;;3.05;1.55;;;;;;;;;;5263078;28;20388;-80
2023/12/27 09:47:59;;;;;;;3.35;1.58;;;;;;;;;;5264563;28;20024;-80
2023/12/27 09:50:30;;;;;;;2.00;1.13;;;;;;;;;;5264705;28;20024;-79
2023/12/27 09:53:01;;;;;;;4.43;1.33;;;;;;;;;;5263526;28;20100;-79
2023/12/27 09:55:32;;;;;;;2.55;1.20;;;;;;;;;;5264170;28;20036;-79
2023/12/27 09:58:04;;;;;;;3.35;1.20;;;;;;;;;;5264222;28;20384;-79
2023/12/27 10:00:35;;;;;;;3.78;1.30;;;;;;;;;;5264001;28;20048;-80
2023/12/27 10:03:07;;;;;;;1.98;0.98;;;;;;;;;;5269481;28;20025;-80
2023/12/27 10:05:38;;;;;;;2.08;0.85;;;;;;;;;;5265210;28;20033;-79
2023/12/27 10:08:10;;;;;;;2.47;0.90;;;;;;;;;;5263383;28;20476;-76
2023/12/27 10:10:42;;;;;;;3.65;0.85;;;;;;;;;;5263839;28;20025;-77
2023/12/27 10:13:13;;;;;;;2.00;0.50;;;;;;;;;;5263161;28;20017;-80
2023/12/27 10:15:44;;;;;;;2.95;0.60;;;;;;;;;;5263720;28;20032;-80
2023/12/27 10:18:16;;;;;;;1.92;0.40;;;;;;;;;;5263851;28;20025;-80
2023/12/27 10:20:48;;;;;;;3.45;0.57;;;;;;;;;;5262707;28;20075;-80
2023/12/27 10:23:19;;;;;;;1.13;0.40;;;;;;;;;;5264084;28;20047;-74
2023/12/27 10:25:53;;;;;;;1.10;0.30;;;;;;;;;;5263731;28;20033;-79
2023/12/27 10:28:24;;;;;;;1.45;0.22;;;;;;;;;;5262401;28;20385;-79
2023/12/27 10:30:55;;;;;;;2.33;0.40;;;;;;;;;;5263852;28;20023;-80
2023/12/27 10:33:27;;;;;;;1.88;0.30;;;;;;;;;;5262973;28;20079;-78
2023/12/27 10:35:58;;;;;;;2.38;0.30;;;;;;;;;;5262612;28;20017;-77
2023/12/27 10:38:29;;;;;;;1.70;0.40;;;;;;;;;;5263262;28;20079;-78
2023/12/27 10:41:05;;;;;;;2.53;0.30;;;;;;;;;;5263333;28;20530;-77
2023/12/27 10:43:36;;;;;;;3.65;0.40;;;;;;;;;;5262401;28;20017;-77
2023/12/27 10:46:08;;;;;;;3.05;0.30;;;;;;;;;;5263210;28;20036;-77
2023/12/27 10:48:40;;;;;;;2.42;0.40;;;;;;;;;;5262517;28;20484;-77
2023/12/27 10:51:12;;;;;;;3.15;0.50;;;;;;;;;;5263676;28;20069;-78
2023/12/27 10:53:43;;;;;;;1.77;0.40;;;;;;;;;;5263231;28;20355;-78
2023/12/27 10:56:19;;;;;;;1.88;0.40;;;;;;;;;;5264282;28;20021;-79
2023/12/27 10:58:52;;;;;;;1.80;0.60;;;;;;;;;;5262229;28;20024;-78
2023/12/27 11:01:24;;;;;;;2.97;0.40;;;;;;;;;;5256218;28;20051;-78
2023/12/27 11:03:55;;;;;;;1.83;0.30;;;;;;;;;;5251496;28;20024;-78
2023/12/27 11:06:29;;;;;;;4.05;0.40;;;;;;;;;;5251719;28;20047;-78
2023/12/27 11:09:03;;;;;;;2.13;0.50;;;;;;;;;;5250936;28;20017;-78
2023/12/27 11:11:38;;;;;;;2.30;0.77;;;;;;;;;;5250425;28;20457;-78
2023/12/27 11:14:13;;;;;;;3.67;0.90;;;;;;;;;;5253516;28;20024;-79
2023/12/27 11:16:46;;;;;;;5.45;0.55;;;;;;;;;;5251325;28;20012;-77
2023/12/27 11:19:17;;;;;;;4.22;0.50;;;;;;;;;;5251205;28;20025;-76
2023/12/27 11:21:50;;;;;;;4.35;0.60;;;;;;;;;;5250919;28;20017;-77
2023/12/27 11:24:21;;;;;;;5.15;0.60;;;;;;;;;;5249862;28;20008;-78
2023/12/27 11:26:58;;;;;;;3.75;0.93;;;;;;;;;;5252353;28;20025;-77
2023/12/27 11:29:30;;;;;;;5.53;0.50;;;;;;;;;;5244330;28;20033;-79
2023/12/27 11:32:01;;;;;;;4.85;0.90;;;;;;;;;;5241106;28;20109;-77
2023/12/27 11:34:32;;;;;;;2.88;0.50;;;;;;;;;;5241653;28;20097;-78
2023/12/27 11:37:05;;;;;;;2.95;0.70;;;;;;;;;;5241721;28;20021;-78
2023/12/27 11:39:38;;;;;;;2.58;0.60;;;;;;;;;;5240676;28;20045;-77
2023/12/27 11:42:09;;;;;;;3.38;0.50;;;;;;;;;;5241409;28;20017;-78
2023/12/27 11:44:47;;;;;;;3.58;0.73;;;;;;;;;;5240848;28;20084;-77
2023/12/27 11:47:22;;;;;;;5.00;0.60;;;;;;;;;;5241423;28;20041;-78
2023/12/27 11:50:13;;;;;;;2.50;0.85;;;;;;;;;;5241559;28;20017;-78
2023/12/27 11:52:45;;;;;;;3.17;0.57;;;;;;;;;;5240134;28;20029;-78
2023/12/27 11:55:18;;;;;;;4.75;0.70;;;;;;;;;;5242075;28;20018;-77
2023/12/27 11:57:55;;;;;;;4.57;0.52;;;;;;;;;;5242285;28;20036;-78
2023/12/27 12:00:29;;;;;;;5.43;0.60;;;;;;;;;;5240027;28;20108;-77
2023/12/27 12:03:01;;;;;;;4.95;0.60;;;;;;;;;;5240880;28;20021;-78
2023/12/27 12:05:41;;;;;;;3.55;0.60;;;;;;;;;;5239651;28;20013;-78
2023/12/27 12:08:27;;;;;;;3.22;0.50;;;;;;;;;;5240966;28;20036;-75
2023/12/27 12:11:06;;;;;;;4.88;0.60;;;;;;;;;;5240770;28;20013;-75
2023/12/27 12:13:38;;;;;;;5.07;0.70;;;;;;;;;;5239802;28;20029;-75
2023/12/27 12:16:10;;;;;;;3.58;0.70;;;;;;;;;;5240475;28;20443;-76
2023/12/27 12:18:41;;;;;;;4.30;0.65;;;;;;;;;;5249841;28;20028;-77
2023/12/27 12:21:12;;;;;;;4.20;0.80;;;;;;;;;;5258720;28;20048;-75
2023/12/27 12:23:46;;;;;;;5.03;0.90;;;;;;;;;;5258948;28;20028;-75
2023/12/27 12:26:17;;;;;;;4.35;0.60;;;;;;;;;;5250344;28;20119;-76
2023/12/27 12:28:55;;;;;;;4.05;0.60;;;;;;;;;;5258215;28;20116;-75
2023/12/27 12:31:26;;;;;;;4.90;0.68;;;;;;;;;;5239759;28;20087;-75
2023/12/27 12:33:58;;;;;;;3.90;0.80;;;;;;;;;;5243610;28;20017;-77
2023/12/27 12:36:29;;;;;;;3.03;0.82;;;;;;;;;;5240263;28;20508;-75
2023/12/27 12:39:00;;;;;;;3.90;0.85;;;;;;;;;;5240409;28;20025;-76
2023/12/27 12:41:31;;;;;;;3.92;0.60;;;;;;;;;;5245985;28;20033;-78
2023/12/27 12:44:03;;;;;;;5.43;0.70;;;;;;;;;;5249512;28;20017;-78
2023/12/27 12:46:34;;;;;;;3.25;0.70;;;;;;;;;;5260701;28;20032;-80
2023/12/27 12:49:06;;;;;;;3.53;1.23;;;;;;;;;;5259486;28;20109;-77
2023/12/27 12:51:37;;;;;;;4.85;0.70;;;;;;;;;;5250495;28;20384;-77
2023/12/27 12:54:08;;;;;;;5.75;0.75;;;;;;;;;;5242508;28;20021;-78
2023/12/27 12:56:39;;;;;;;7.15;0.98;;;;;;;;;;5258676;28;20040;-77
2023/12/27 12:59:10;;;;;;;4.70;0.88;;;;;;;;;;5259783;28;20104;-75
2023/12/27 13:01:42;;;;;;;4.70;0.80;;;;;;;;;;5242149;28;20053;-75
2023/12/27 13:04:13;;;;;;;4.50;1.00;;;;;;;;;;5247619;28;20021;-75
2023/12/27 13:06:47;;;;;;;4.68;0.70;;;;;;;;;;5258971;28;20039;-75
2023/12/27 13:09:18;;;;;;;3.88;0.70;;;;;;;;;;5259927;28;20021;-75
2023/12/27 13:11:49;;;;;;;4.00;0.90;;;;;;;;;;5260773;28;20388;-75
2023/12/27 13:14:20;;;;;;;2.15;0.70;;;;;;;;;;5260071;28;20013;-76
2023/12/27 13:16:52;;;;;;;4.80;0.88;;;;;;;;;;5259906;28;20053;-75
2023/12/27 13:19:23;;;;;;;4.68;0.73;;;;;;;;;;5264559;28;20017;-75
2023/12/27 13:21:56;;;;;;;3.88;0.70;;;;;;;;;;5250799;28;20041;-74
2023/12/27 13:24:27;;;;;;;2.60;0.60;;;;;;;;;;5252307;28;20025;-75
2023/12/27 13:26:58;;;;;;;4.85;1.15;;;;;;;;;;5258245;28;20376;-72
2023/12/27 13:29:29;;;;;;;5.90;1.25;;;;;;;;;;5261483;28;20048;-72
2023/12/27 13:32:01;;;;;;;4.00;0.73;;;;;;;;;;5249271;28;20049;-73
2023/12/27 13:34:33;;;;;;;4.93;1.10;;;;;;;;;;5243593;28;20029;-79
2023/12/27 13:37:04;;;;;;;6.85;1.50;;;;;;;;;;5242525;28;20476;-78
2023/12/27 13:39:35;;;;;;;4.78;0.60;;;;;;;;;;5243675;28;20056;-78
2023/12/27 13:42:06;;;;;;;6.07;0.70;;;;;;;;;;5243582;28;20025;-75
2023/12/27 13:44:38;;;;;;;7.00;1.25;;;;;;;;;;5242814;28;20025;-76
2023/12/27 13:47:09;;;;;;;4.05;0.70;;;;;;;;;;5242851;28;20384;-76
2023/12/27 13:49:42;;;;;;;3.95;0.65;;;;;;;;;;5243365;28;20526;-76
2023/12/27 13:52:13;;;;;;;4.97;0.80;;;;;;;;;;5240788;28;20376;-76
2023/12/27 13:54:45;;;;;;;5.43;0.60;;;;;;;;;;5241856;28;20025;-77
2023/12/27 13:57:16;;;;;;;3.72;0.80;;;;;;;;;;5243971;28;20116;-79
2023/12/27 13:59:48;;;;;;;5.30;0.60;;;;;;;;;;5240501;28;20021;-79
2023/12/27 14:02:19;;;;;;;5.55;0.68;;;;;;;;;;5241197;28;20021;-79
2023/12/27 14:04:50;;;;;;;5.97;1.95;;;;;;;;;;5244557;28;20018;-79
2023/12/27 14:07:22;;;;;;;3.47;0.68;;;;;;;;;;5261441;28;20037;-77
2023/12/27 14:09:53;;;;;;;3.10;0.90;;;;;;;;;;5264042;28;20024;-73
2023/12/27 14:12:28;;;;;;;2.15;0.60;;;;;;;;;;5262638;28;20476;-72
2023/12/27 14:15:00;;;;;;;5.70;0.60;;;;;;;;;;5263805;28;20013;-75
2023/12/27 14:17:32;;;;;;;3.08;0.95;;;;;;;;;;5263342;28;20013;-75
2023/12/27 14:20:04;;;;;;;3.28;0.70;;;;;;;;;;5262828;28;20036;-74
2023/12/27 14:22:35;;;;;;;3.28;0.68;;;;;;;;;;5263198;28;20456;-74
2023/12/27 14:25:08;;;;;;;4.30;0.50;;;;;;;;;;5263227;28;20040;-74
2023/12/27 14:27:40;;;;;;;3.72;0.60;;;;;;;;;;5262332;28;20045;-74
2023/12/27 14:30:11;;;;;;;4.78;0.60;;;;;;;;;;5262963;28;20017;-74
2023/12/27 14:32:42;;;;;;;5.50;0.70;;;;;;;;;;5263202;28;20369;-75
2023/12/27 14:35:14;;;;;;;4.45;0.70;;;;;;;;;;5262398;28;20017;-75
2023/12/27 14:37:45;;;;;;;4.90;0.80;;;;;;;;;;5263336;28;20025;-75
2023/12/27 14:40:16;;;;;;;4.60;1.02;;;;;;;;;;5263388;28;20083;-75
2023/12/27 14:42:47;;;;;;;2.67;0.50;;;;;;;;;;5262687;28;20017;-75
2023/12/27 14:45:19;;;;;;;3.35;0.52;;;;;;;;;;5263146;28;20020;-75
2023/12/27 14:47:50;;;;;;;3.65;0.60;;;;;;;;;;5262561;28;20079;-75
2023/12/27 14:50:21;;;;;;;4.32;0.60;;;;;;;;;;5262637;28;20020;-75
2023/12/27 14:52:54;;;;;;;1.77;0.40;;;;;;;;;;5263329;28;20563;-76
2023/12/27 14:55:25;;;;;;;3.50;0.60;;;;;;;;;;5261801;28;20100;-75
2023/12/27 14:57:56;;;;;;;3.83;0.60;;;;;;;;;;5262783;28;20108;-75
2023/12/27 15:00:27;;;;;;;3.38;0.88;;;;;;;;;;5262608;28;20468;-74
2023/12/27 15:02:59;;;;;;;4.15;0.65;;;;;;;;;;5261912;28;20105;-75
2023/12/27 15:05:30;;;;;;;3.75;0.95;;;;;;;;;;5262694;28;20471;-75